Portada
METAR-TAF:

METAR-TAF

Aeroports :

Phuket, Tailàndia

latitud: 08-07N, longitud: 098-19E, altitud: 6 m

Observació

L'informe es va fer fa 34 minuts, a les 20:30 UTC
Vent 3 kt amb direcció variable
Temperatura 25°C
Humitat 79%
Pressió 1008 hPa
Visibilitat 10 km o més
Escasses núvols a una alçada de 3000 ft

METAR: VTSP 242030Z VRB03KT 9999 FEW030 25/21 Q1008 NOSIG

Hora: 04:04 (21:04 UTC)

Pronòstic

L'informe es va fer fa 10 hores i 4 minuts, a les 11:00 UTC
Pronòstic vàlid del 24 a les 12 UTC al 25 a les 18 UTC
Vent 8 kt del Oest
Visibilitat 10 km o més
Escasses núvols a una alçada de 2000 ft
Evolucionant progressivament
l' 24 a les 14 UTC al 24 a les 16 UTC
Vent kt del Nord
Evolucionant progressivament
l' 25 a les 00 UTC al 25 a les 02 UTC
Vent 6 kt del Est
Evolucionant progressivament
l' 25 a les 04 UTC al 25 a les 06 UTC
Vent 8 kt del Oest

TAF: VTSP 241100Z 2412/2518 28008KT 9999 FEW020 BECMG 2414/2416 00000KT BECMG 2500/2502 10006KT BECMG 2504/2506 28008KT

Observacions i pronòstics meteorològics de més de 4000 aeroports (METAR i TAF).

Les estacions disponibles són els punts grocs i vermells al mapa.

Posi el ratolí al punt desitjat per veure el nom de l'estació.

Feu clic per veure les observacions i els pronòstics meteorològics.

Per canviar el mapa: feu clic els botons verds amb una creu de color negre per apropar; al botó verd amb un guió per allunyar la imatge; o en les fletxes verdes per a mapes adjacents.


METAR-TAF: